Time;durP1;ratioP1;P1;durP2;ratioP2;P2;SDS_P1;SDS_P2;PMS_P1;PMS_P2;Temp;Humidity;BMP_temperature;BMP_pressure;BME280_temperature;BME280_humidity;BME280_pressure;Samples;Min_cycle;Max_cycle;Signal;HPM_P1;HPM_P2
2023/04/29 00:01:58;;;;;;;31.13;10.77;;;19.60;57.50;;;;;;5130159;27;20729;-94
2023/04/29 00:04:25;;;;;;;34.03;11.43;;;19.60;57.50;;;;;;5109739;27;20546;-95
2023/04/29 00:06:53;;;;;;;29.87;10.93;;;19.60;57.50;;;;;;5114283;27;20237;-94
2023/04/29 00:09:21;;;;;;;32.63;11.43;;;19.50;57.40;;;;;;5093227;28;20203;-93
2023/04/29 00:11:50;;;;;;;45.50;11.93;;;19.50;57.40;;;;;;5100295;28;20357;-94
2023/04/29 00:14:18;;;;;;;33.13;11.33;;;19.50;57.40;;;;;;5111207;28;20255;-95
2023/04/29 00:16:46;;;;;;;27.60;10.90;;;19.50;57.40;;;;;;5114689;28;20204;-95
2023/04/29 00:19:17;;;;;;;25.47;9.90;;;19.40;57.30;;;;;;5127295;28;20206;-96
2023/04/29 00:21:44;;;;;;;25.77;10.77;;;19.40;57.40;;;;;;5128942;28;20678;-95
2023/04/29 00:24:11;;;;;;;26.40;10.87;;;19.40;57.30;;;;;;5122884;28;20202;-96
2023/04/29 00:26:40;;;;;;;28.27;10.50;;;19.40;57.40;;;;;;5119886;28;20239;-95
2023/04/29 00:29:12;;;;;;;36.60;11.40;;;19.20;57.20;;;;;;5129860;28;20221;-95
2023/04/29 00:31:39;;;;;;;32.63;11.50;;;19.30;57.30;;;;;;5117270;28;20643;-94
2023/04/29 00:34:07;;;;;;;29.00;10.90;;;19.30;57.30;;;;;;5114195;28;20209;-96
2023/04/29 00:36:36;;;;;;;49.20;12.67;;;19.30;57.30;;;;;;5114759;28;20213;-96
2023/04/29 00:39:06;;;;;;;30.13;10.77;;;19.20;57.20;;;;;;5121458;28;20225;-95
2023/04/29 00:41:37;;;;;;;32.67;11.40;;;19.20;57.20;;;;;;5120645;28;20202;-96
2023/04/29 00:44:06;;;;;;;29.33;10.13;;;19.20;57.20;;;;;;5137586;28;20200;-96
2023/04/29 00:46:42;;;;;;;22.27;9.63;;;19.20;57.30;;;;;;5135715;28;20209;-96
2023/04/29 00:49:11;;;;;;;31.43;10.27;;;19.10;57.20;;;;;;5120488;28;20244;-96
2023/04/29 00:51:40;;;;;;;30.93;10.33;;;19.20;57.30;;;;;;5122781;28;20194;-93
2023/04/29 00:54:08;;;;;;;41.33;11.60;;;19.10;57.30;;;;;;5121576;28;20215;-95
2023/04/29 00:56:41;;;;;;;12.07;8.90;;;19.10;57.30;;;;;;5144422;28;20212;-92
2023/04/29 00:59:11;;;;;;;41.30;10.93;;;19.10;57.30;;;;;;5137264;28;20586;-93
2023/04/29 01:01:38;;;;;;;37.73;10.80;;;19.10;57.90;;;;;;5113924;28;20222;-93
2023/04/29 01:04:07;;;;;;;25.93;9.57;;;19.00;57.30;;;;;;5120116;28;20232;-94
2023/04/29 01:06:50;;;;;;;29.37;10.17;;;19.00;57.30;;;;;;5115389;28;20187;-92
2023/04/29 01:09:27;;;;;;;39.70;11.03;;;19.00;57.30;;;;;;5111131;28;20233;-95
2023/04/29 01:12:08;;;;;;;33.17;10.40;;;19.00;57.30;;;;;;5126270;28;20674;-95
2023/04/29 01:14:47;;;;;;;25.23;9.43;;;18.90;57.90;;;;;;5110888;28;20213;-93
2023/04/29 01:17:19;;;;;;;25.23;9.77;;;18.90;57.20;;;;;;5105342;28;20205;-91
2023/04/29 01:19:52;;;;;;;32.23;9.70;;;18.90;57.20;;;;;;5110901;28;20201;-91
2023/04/29 01:22:22;;;;;;;37.27;9.77;;;18.90;57.30;;;;;;5122838;28;20209;-93
2023/04/29 01:24:51;;;;;;;25.33;9.23;;;18.90;57.20;;;;;;5123382;28;20228;-96
2023/04/29 01:27:28;;;;;;;28.43;9.77;;;18.90;57.30;;;;;;5118533;28;20213;-96
2023/04/29 01:30:02;;;;;;;35.20;9.43;;;18.80;57.20;;;;;;5102721;28;20201;-96
2023/04/29 01:32:43;;;;;;;24.33;9.07;;;18.80;57.20;;;;;;5107623;27;20292;-92
2023/04/29 01:35:25;;;;;;;29.90;10.00;;;18.80;57.30;;;;;;5125626;27;20225;-94
2023/04/29 01:37:57;;;;;;;36.23;9.80;;;18.80;57.30;;;;;;5113430;28;21041;-92
2023/04/29 01:40:37;;;;;;;25.67;8.97;;;18.80;57.30;;;;;;5113991;28;20694;-96
2023/04/29 01:43:10;;;;;;;26.63;8.57;;;18.80;57.30;;;;;;5123624;27;20663;-96
2023/04/29 01:45:40;;;;;;;39.67;10.00;;;18.70;57.20;;;;;;5133551;27;20197;-96
2023/04/29 01:48:09;;;;;;;33.30;9.20;;;18.70;57.20;;;;;;5107784;28;20236;-96
2023/04/29 01:50:36;;;;;;;28.73;8.90;;;18.70;57.30;;;;;;5097101;28;20194;-96
2023/04/29 01:53:07;;;;;;;28.50;9.17;;;18.70;57.30;;;;;;5120264;27;20225;-96
2023/04/29 01:55:35;;;;;;;33.43;9.33;;;18.70;57.30;;;;;;5131557;27;20294;-96
2023/04/29 01:58:02;;;;;;;27.27;8.47;;;18.70;57.30;;;;;;5134750;27;20206;-96
2023/04/29 02:00:30;;;;;;;24.00;8.23;;;18.70;57.30;;;;;;5121456;28;20202;-93
2023/04/29 02:03:01;;;;;;;23.87;8.93;;;18.60;57.20;;;;;;5133910;27;20200;-96
2023/04/29 02:05:32;;;;;;;20.87;7.60;;;18.60;57.20;;;;;;5117458;28;20226;-89
2023/04/29 02:08:03;;;;;;;16.93;7.60;;;18.60;57.20;;;;;;5152059;27;20233;-92
2023/04/29 02:10:34;;;;;;;12.67;7.27;;;18.60;57.30;;;;;;5156946;27;20183;-93
2023/04/29 02:13:12;;;;;;;20.60;7.30;;;18.60;57.30;;;;;;5136740;27;20213;-94
2023/04/29 02:15:40;;;;;;;17.30;7.83;;;18.60;57.30;;;;;;5140169;27;20192;-96
2023/04/29 02:18:08;;;;;;;23.80;7.57;;;18.60;57.30;;;;;;5149878;27;20198;-96
2023/04/29 02:20:36;;;;;;;20.47;7.50;;;18.60;57.30;;;;;;5130491;28;20198;-96
2023/04/29 02:23:03;;;;;;;26.40;8.00;;;18.50;57.20;;;;;;5142568;27;20620;-96
2023/04/29 02:25:31;;;;;;;20.73;7.10;;;18.50;57.20;;;;;;5134578;27;20205;-96
2023/04/29 02:28:00;;;;;;;24.13;7.43;;;18.50;57.20;;;;;;5120379;27;20230;-96
2023/04/29 02:30:29;;;;;;;9.90;6.13;;;18.50;57.20;;;;;;5132406;28;20189;-94
2023/04/29 02:32:58;;;;;;;10.67;6.27;;;18.50;57.20;;;;;;5135769;28;20255;-96
2023/04/29 02:35:25;;;;;;;19.07;6.83;;;18.50;57.30;;;;;;5129143;28;20205;-96
2023/04/29 02:37:56;;;;;;;21.53;7.57;;;18.50;57.30;;;;;;5126994;28;20203;-96
2023/04/29 02:40:25;;;;;;;26.50;7.60;;;18.40;57.20;;;;;;5129025;27;20229;-96
2023/04/29 02:42:56;;;;;;;18.47;6.87;;;18.40;57.20;;;;;;5144744;27;20205;-96
2023/04/29 02:45:24;;;;;;;18.07;7.27;;;18.40;57.20;;;;;;5137593;27;20198;-95
2023/04/29 02:48:16;;;;;;;12.17;6.93;;;18.40;57.20;;;;;;5131356;28;20218;-94
2023/04/29 02:53:34;;;;;;;25.87;7.50;;;18.40;57.20;;;;;;5142382;27;20215;-94
2023/04/29 02:56:01;;;;;;;25.70;7.93;;;18.40;57.20;;;;;;5124406;28;20201;-96
2023/04/29 02:58:29;;;;;;;16.90;7.10;;;18.30;57.10;;;;;;5130415;28;20209;-92
2023/04/29 03:00:56;;;;;;;14.53;7.00;;;18.30;57.20;;;;;;5131569;27;20243;-95
2023/04/29 03:03:38;;;;;;;20.67;7.37;;;18.30;57.20;;;;;;5137294;28;20173;-96
2023/04/29 03:06:16;;;;;;;14.10;6.50;;;18.30;57.10;;;;;;5135659;27;20195;-94
2023/04/29 03:08:52;;;;;;;11.50;6.60;;;18.30;57.20;;;;;;5114341;28;20210;-95
2023/04/29 03:12:16;;;;;;;33.30;8.50;;;18.30;57.20;;;;;;5130970;28;20189;-91
2023/04/29 03:14:46;;;;;;;19.00;7.27;;;18.20;57.10;;;;;;5134782;28;20202;-93
2023/04/29 03:17:29;;;;;;;14.20;6.77;;;18.20;57.10;;;;;;5145544;27;20181;-91
2023/04/29 03:20:19;;;;;;;12.07;6.20;;;18.20;57.10;;;;;;5156147;27;20212;-90
2023/04/29 03:22:52;;;;;;;19.50;7.17;;;18.20;57.10;;;;;;5145226;27;20290;-91
2023/04/29 03:25:33;;;;;;;19.10;6.93;;;18.20;57.10;;;;;;5136913;28;20198;-90
2023/04/29 03:28:42;;;;;;;13.03;6.70;;;18.20;57.10;;;;;;5115087;28;20194;-92
2023/04/29 03:31:23;;;;;;;23.23;7.47;;;18.20;57.10;;;;;;5115265;28;20192;-89
2023/04/29 03:33:56;;;;;;;21.83;6.80;;;18.20;57.10;;;;;;5114003;28;20195;-92
2023/04/29 03:36:27;;;;;;;11.67;6.27;;;18.10;57.00;;;;;;5118838;28;20181;-94
2023/04/29 03:39:00;;;;;;;19.30;6.90;;;18.10;57.00;;;;;;5134914;28;20225;-95
2023/04/29 03:41:28;;;;;;;21.33;7.13;;;18.10;57.00;;;;;;5134231;28;20204;-95
2023/04/29 03:44:07;;;;;;;17.10;6.77;;;18.10;57.00;;;;;;5112023;28;20191;-94
2023/04/29 03:46:34;;;;;;;13.10;6.23;;;18.10;57.00;;;;;;5116475;28;20185;-95
2023/04/29 03:49:04;;;;;;;26.30;7.73;;;18.10;57.00;;;;;;5137157;28;20239;-92
2023/04/29 03:51:34;;;;;;;19.03;7.23;;;18.00;56.90;;;;;;5146900;27;20200;-94
2023/04/29 03:54:05;;;;;;;20.60;6.87;;;18.00;56.90;;;;;;5130545;28;20195;-92
2023/04/29 03:56:42;;;;;;;16.03;6.30;;;18.00;56.90;;;;;;5115467;28;20174;-91
2023/04/29 03:59:15;;;;;;;11.80;6.50;;;18.00;56.90;;;;;;5117777;28;20177;-94
2023/04/29 04:01:48;;;;;;;19.47;7.23;;;18.00;56.90;;;;;;5123435;28;20198;-92
2023/04/29 04:04:19;;;;;;;16.17;6.97;;;18.00;56.90;;;;;;5137506;28;20181;-93
2023/04/29 04:06:50;;;;;;;16.70;7.10;;;18.00;56.90;;;;;;5136860;28;20205;-91
2023/04/29 04:09:18;;;;;;;17.33;6.57;;;18.00;56.90;;;;;;5100246;28;20246;-90
2023/04/29 04:11:46;;;;;;;22.07;7.13;;;17.90;56.90;;;;;;5097055;28;20198;-90
2023/04/29 04:14:15;;;;;;;14.10;6.17;;;17.90;56.90;;;;;;5093550;28;20569;-90
2023/04/29 04:16:50;;;;;;;11.60;5.87;;;17.90;56.90;;;;;;5107196;28;20290;-91
2023/04/29 04:19:22;;;;;;;11.00;6.40;;;17.90;56.90;;;;;;5115244;28;20629;-90
2023/04/29 04:22:10;;;;;;;14.87;6.43;;;17.90;56.90;;;;;;5113539;28;20923;-90
2023/04/29 04:24:50;;;;;;;14.00;6.17;;;17.90;56.90;;;;;;5132216;28;20262;-94
2023/04/29 04:27:23;;;;;;;27.53;7.63;;;17.90;56.90;;;;;;5135190;28;20212;-93
2023/04/29 04:30:02;;;;;;;16.87;6.90;;;17.90;56.90;;;;;;5130451;28;20212;-90
2023/04/29 04:35:24;;;;;;;15.67;6.97;;;17.80;56.90;;;;;;5135243;28;20208;-95
2023/04/29 04:38:18;;;;;;;19.23;6.67;;;17.90;57.00;;;;;;5130178;28;20199;-90
2023/04/29 04:40:45;;;;;;;14.33;6.30;;;17.80;56.90;;;;;;5134508;28;20197;-94
2023/04/29 04:43:21;;;;;;;13.93;6.27;;;17.80;57.00;;;;;;5126965;28;20198;-92
2023/04/29 04:45:48;;;;;;;23.07;6.80;;;17.80;56.90;;;;;;5125615;28;20650;-95
2023/04/29 04:48:16;;;;;;;27.67;7.33;;;17.80;56.90;;;;;;5100941;28;20229;-93
2023/04/29 04:50:44;;;;;;;31.27;8.07;;;17.80;56.90;;;;;;5118718;27;20251;-91
2023/04/29 04:53:11;;;;;;;26.53;7.53;;;17.70;56.80;;;;;;5119227;27;20198;-93
2023/04/29 04:55:39;;;;;;;31.43;8.37;;;17.70;56.80;;;;;;5126248;27;20202;-94
2023/04/29 04:58:06;;;;;;;31.37;8.17;;;17.80;56.90;;;;;;5130615;28;20226;-93
2023/04/29 05:00:33;;;;;;;30.13;7.73;;;17.70;56.80;;;;;;5129374;27;20254;-94
2023/04/29 05:03:00;;;;;;;24.10;7.47;;;17.70;56.80;;;;;;5127370;27;20201;-94
2023/04/29 05:05:28;;;;;;;26.73;7.40;;;17.70;56.80;;;;;;5120204;28;20243;-95
2023/04/29 05:07:55;;;;;;;17.87;6.50;;;17.70;56.90;;;;;;5122091;28;20197;-92
2023/04/29 05:10:25;;;;;;;19.47;7.37;;;17.70;56.90;;;;;;5120641;28;20235;-94
2023/04/29 05:12:54;;;;;;;28.70;7.93;;;17.70;56.90;;;;;;5119072;28;20201;-95
2023/04/29 05:15:21;;;;;;;28.47;7.03;;;17.70;56.90;;;;;;5123145;27;20266;-95
2023/04/29 05:17:49;;;;;;;26.93;7.77;;;17.70;56.90;;;;;;5123850;27;20205;-94
2023/04/29 05:20:16;;;;;;;27.53;7.47;;;17.60;56.80;;;;;;5119520;28;20268;-96
2023/04/29 05:22:43;;;;;;;25.77;7.60;;;17.60;56.80;;;;;;5118493;28;20234;-92
2023/04/29 05:25:11;;;;;;;41.83;9.43;;;17.60;56.80;;;;;;5116314;28;20622;-95
2023/04/29 05:27:39;;;;;;;43.23;9.87;;;17.70;56.90;;;;;;5111012;28;20203;-91
2023/04/29 05:30:13;;;;;;;28.67;8.47;;;17.70;56.90;;;;;;5120367;27;20236;-95
2023/04/29 05:32:41;;;;;;;33.00;9.17;;;17.70;57.00;;;;;;5136475;27;20204;-93
2023/04/29 05:35:09;;;;;;;33.43;9.40;;;17.60;56.90;;;;;;5135031;27;20294;-94
2023/04/29 05:37:36;;;;;;;35.43;10.07;;;17.60;56.90;;;;;;5133809;27;20205;-95
2023/04/29 05:40:04;;;;;;;49.50;10.63;;;17.60;56.90;;;;;;5133977;27;20315;-96
2023/04/29 05:42:31;;;;;;;33.23;9.33;;;17.60;56.90;;;;;;5134182;27;20279;-95
2023/04/29 05:44:58;;;;;;;26.97;7.97;;;17.60;56.90;;;;;;5134031;27;20205;-95
2023/04/29 05:47:27;;;;;;;38.67;9.57;;;17.60;57.00;;;;;;5113089;27;20267;-94
2023/04/29 05:49:54;;;;;;;35.53;9.40;;;17.60;56.90;;;;;;5121407;27;20236;-94
2023/04/29 05:52:21;;;;;;;30.77;9.60;;;17.60;56.90;;;;;;5113524;28;20197;-94
2023/04/29 05:54:52;;;;;;;69.70;12.67;;;17.60;57.00;;;;;;5112398;27;20262;-94
2023/04/29 05:57:19;;;;;;;31.40;9.30;;;17.60;56.90;;;;;;5110342;27;20206;-94
2023/04/29 05:59:46;;;;;;;32.87;10.00;;;17.60;57.00;;;;;;5111744;28;20254;-94
2023/04/29 06:02:15;;;;;;;35.60;11.10;;;17.60;57.00;;;;;;5118593;27;20278;-95
2023/04/29 06:04:43;;;;;;;50.47;11.47;;;17.60;57.00;;;;;;5114512;27;20209;-93
2023/04/29 06:07:11;;;;;;;43.67;10.63;;;17.60;57.00;;;;;;5113954;27;20193;-95
2023/04/29 06:09:38;;;;;;;31.67;9.50;;;17.60;57.00;;;;;;5135384;27;20244;-94
2023/04/29 06:12:07;;;;;;;41.10;10.10;;;17.50;56.90;;;;;;5137220;27;20232;-95
2023/04/29 06:14:34;;;;;;;36.13;10.33;;;17.50;56.90;;;;;;5129288;27;20237;-94
2023/04/29 06:17:04;;;;;;;31.90;9.07;;;17.50;56.90;;;;;;5137085;27;20254;-95
2023/04/29 06:19:32;;;;;;;34.23;9.93;;;17.50;56.90;;;;;;5131922;27;20386;-95
2023/04/29 06:22:01;;;;;;;31.83;8.80;;;17.50;57.00;;;;;;5096167;28;20243;-93
2023/04/29 06:24:28;;;;;;;39.80;8.87;;;17.50;57.00;;;;;;5126464;27;20270;-95
2023/04/29 06:27:12;;;;;;;36.00;9.40;;;17.50;56.90;;;;;;5116728;27;20216;-94
2023/04/29 06:29:39;;;;;;;30.70;9.47;;;17.50;57.00;;;;;;5108450;28;20225;-94
2023/04/29 06:32:06;;;;;;;44.30;10.03;;;17.50;57.00;;;;;;5094291;28;20195;-93
2023/04/29 06:34:33;;;;;;;22.90;8.00;;;17.50;57.00;;;;;;5135714;27;20228;-95
2023/04/29 06:37:02;;;;;;;33.27;8.70;;;17.50;56.90;;;;;;5131746;27;20229;-95
2023/04/29 06:39:29;;;;;;;38.47;9.87;;;17.50;57.00;;;;;;5125462;27;20217;-95
2023/04/29 06:41:57;;;;;;;42.13;10.23;;;17.50;57.00;;;;;;5110941;28;20676;-93
2023/04/29 06:44:24;;;;;;;28.93;8.10;;;17.50;57.00;;;;;;5114478;28;20200;-95
2023/04/29 06:46:52;;;;;;;33.83;8.90;;;17.50;57.00;;;;;;5112655;28;20204;-93
2023/04/29 06:49:19;;;;;;;34.50;9.03;;;17.50;57.00;;;;;;5111690;27;20267;-92
2023/04/29 06:51:45;;;;;;;43.67;10.53;;;17.50;57.00;;;;;;5113347;27;20699;-92
2023/04/29 06:54:14;;;;;;;32.93;9.13;;;17.50;57.00;;;;;;5111456;28;20843;-93
2023/04/29 06:56:41;;;;;;;29.00;8.47;;;17.50;57.00;;;;;;5111528;28;20206;-93
2023/04/29 06:59:10;;;;;;;36.07;9.07;;;17.50;57.00;;;;;;5129271;27;20864;-93
2023/04/29 07:01:40;;;;;;;34.23;9.40;;;17.50;57.00;;;;;;5126331;27;20258;-92
2023/04/29 07:04:07;;;;;;;29.10;8.80;;;17.50;57.00;;;;;;5122654;27;20286;-94
2023/04/29 07:06:35;;;;;;;29.37;8.80;;;17.50;57.00;;;;;;5105743;28;20607;-94
2023/04/29 07:09:02;;;;;;;28.57;9.10;;;17.50;57.00;;;;;;5107455;28;20258;-95
2023/04/29 07:11:31;;;;;;;23.20;9.00;;;17.50;57.00;;;;;;5110654;28;20548;-94
2023/04/29 07:13:58;;;;;;;24.43;8.40;;;17.50;57.00;;;;;;5116739;27;20237;-95
2023/04/29 07:16:27;;;;;;;31.93;8.90;;;17.50;57.00;;;;;;5119826;27;20233;-92
2023/04/29 07:18:54;;;;;;;24.70;7.80;;;17.50;57.00;;;;;;5102603;28;20225;-95
2023/04/29 07:21:24;;;;;;;26.73;7.97;;;17.50;57.00;;;;;;5099026;28;20251;-94
2023/04/29 07:23:51;;;;;;;21.80;8.13;;;17.50;57.00;;;;;;5105672;28;20278;-94
2023/04/29 07:26:18;;;;;;;39.23;9.83;;;17.50;57.00;;;;;;5109937;28;20272;-94
2023/04/29 07:28:49;;;;;;;30.87;9.10;;;17.50;57.00;;;;;;5106164;28;20214;-94
2023/04/29 07:31:16;;;;;;;35.37;9.20;;;17.50;57.00;;;;;;5100922;28;20233;-93
2023/04/29 07:33:45;;;;;;;49.00;10.40;;;17.40;57.00;;;;;;5095251;28;20235;-95
2023/04/29 07:36:13;;;;;;;38.30;8.47;;;17.50;57.00;;;;;;5114404;27;20349;-95
2023/04/29 07:38:40;;;;;;;45.73;9.50;;;17.40;57.00;;;;;;5129056;27;20810;-93
2023/04/29 07:41:07;;;;;;;23.57;8.10;;;17.50;57.10;;;;;;5107040;28;20229;-95
2023/04/29 07:43:35;;;;;;;31.37;8.37;;;17.40;57.00;;;;;;5109500;28;20288;-95
2023/04/29 07:46:03;;;;;;;32.23;8.07;;;17.40;57.00;;;;;;5112731;28;20296;-94
2023/04/29 07:48:30;;;;;;;37.20;9.30;;;17.40;57.00;;;;;;5112148;28;20300;-95
2023/04/29 07:50:57;;;;;;;23.37;8.17;;;17.50;57.10;;;;;;5111407;28;20301;-94
2023/04/29 07:53:24;;;;;;;29.03;8.70;;;17.40;57.00;;;;;;5130927;27;20668;-94
2023/04/29 07:55:53;;;;;;;26.17;7.87;;;17.40;57.00;;;;;;5120132;27;20253;-93
2023/04/29 07:58:20;;;;;;;26.60;8.33;;;17.40;57.00;;;;;;5109384;28;20208;-93
2023/04/29 08:00:47;;;;;;;23.87;7.57;;;17.40;57.00;;;;;;5110837;28;20292;-95
2023/04/29 08:03:15;;;;;;;26.67;8.00;;;17.40;57.00;;;;;;5110522;28;20200;-96
2023/04/29 08:05:43;;;;;;;32.20;8.43;;;17.40;57.00;;;;;;5106989;28;20608;-96
2023/04/29 08:08:12;;;;;;;28.50;8.60;;;17.40;57.00;;;;;;5095646;28;20246;-95
2023/04/29 08:10:42;;;;;;;22.27;8.07;;;17.40;57.00;;;;;;5125293;27;20224;-95
2023/04/29 08:13:09;;;;;;;25.70;7.90;;;17.50;57.10;;;;;;5131496;27;20208;-96
2023/04/29 08:15:36;;;;;;;35.37;10.17;;;17.50;57.10;;;;;;5131737;27;20560;-95
2023/04/29 08:18:03;;;;;;;25.93;8.90;;;17.40;57.00;;;;;;5118744;27;20267;-95
2023/04/29 08:20:31;;;;;;;48.77;13.20;;;17.40;57.00;;;;;;5110516;28;20789;-94
2023/04/29 08:22:59;;;;;;;51.17;18.40;;;17.40;57.00;;;;;;5106843;28;20301;-94
2023/04/29 08:25:28;;;;;;;56.53;21.80;;;17.40;57.00;;;;;;5110668;27;20203;-94
2023/04/29 08:27:55;;;;;;;52.07;21.70;;;17.40;57.10;;;;;;5106487;28;20213;-92
2023/04/29 08:30:22;;;;;;;49.50;21.87;;;17.50;57.20;;;;;;5110675;28;20300;-94
2023/04/29 08:32:49;;;;;;;50.60;22.57;;;17.50;57.20;;;;;;5101459;28;20200;-93
2023/04/29 08:35:16;;;;;;;52.50;22.40;;;17.40;57.10;;;;;;5106125;28;20206;-94
2023/04/29 08:37:44;;;;;;;51.73;22.23;;;17.50;57.20;;;;;;5105119;28;20674;-92
2023/04/29 08:40:17;;;;;;;39.73;21.17;;;17.50;57.30;;;;;;5108459;28;20200;-93
2023/04/29 08:42:45;;;;;;;51.60;20.77;;;17.50;57.30;;;;;;5111742;28;20205;-95
2023/04/29 08:45:16;;;;;;;64.53;21.60;;;17.50;57.70;;;;;;5110360;28;20653;-94
2023/04/29 08:47:43;;;;;;;63.43;21.00;;;17.50;57.30;;;;;;5109753;28;20557;-95
2023/04/29 08:50:11;;;;;;;40.67;17.80;;;17.50;57.30;;;;;;5106983;28;20217;-93
2023/04/29 08:52:39;;;;;;;41.53;17.37;;;17.60;57.40;;;;;;5113120;28;20265;-92
2023/04/29 08:55:08;;;;;;;43.43;17.63;;;17.60;57.40;;;;;;5110228;28;20605;-94
2023/04/29 08:57:39;;;;;;;36.80;16.97;;;17.60;57.40;;;;;;5105889;28;20297;-93
2023/04/29 09:00:09;;;;;;;47.47;16.57;;;17.60;57.40;;;;;;5109293;28;20650;-92
2023/04/29 09:02:42;;;;;;;43.70;16.47;;;17.60;57.40;;;;;;5109911;28;20258;-95
2023/04/29 09:05:10;;;;;;;51.20;16.30;;;17.60;57.40;;;;;;5126324;28;20795;-95
2023/04/29 09:07:39;;;;;;;39.57;14.73;;;17.60;57.40;;;;;;5130554;28;20215;-94
2023/04/29 09:10:08;;;;;;;47.20;14.60;;;17.70;57.50;;;;;;5131028;28;20217;-93
2023/04/29 09:12:36;;;;;;;36.17;12.97;;;17.70;57.50;;;;;;5130239;28;20221;-94
2023/04/29 09:15:03;;;;;;;43.37;14.70;;;17.70;57.50;;;;;;5130240;28;20984;-95
2023/04/29 09:17:44;;;;;;;33.13;13.33;;;17.70;57.50;;;;;;5090069;28;20226;-94
2023/04/29 09:20:28;;;;;;;45.60;13.97;;;17.70;57.60;;;;;;5101037;28;20214;-94
2023/04/29 09:22:56;;;;;;;30.03;11.47;;;17.70;57.50;;;;;;5110345;28;20308;-95
2023/04/29 09:25:26;;;;;;;34.30;12.33;;;17.80;57.60;;;;;;5109642;28;20222;-94
2023/04/29 09:27:54;;;;;;;72.90;14.63;;;17.80;57.60;;;;;;5100752;28;20237;-94
2023/04/29 09:30:21;;;;;;;32.73;10.77;;;17.80;58.20;;;;;;5103742;28;20230;-94
2023/04/29 09:33:05;;;;;;;81.17;16.27;;;17.80;57.60;;;;;;5104138;28;20213;-93
2023/04/29 09:35:33;;;;;;;33.67;11.70;;;17.80;57.70;;;;;;5109646;28;20229;-95
2023/04/29 09:38:11;;;;;;;73.20;13.83;;;17.90;57.70;;;;;;5106040;28;20635;-94
2023/04/29 09:40:41;;;;;;;31.63;11.37;;;17.90;57.70;;;;;;5102978;28;20281;-92
2023/04/29 09:43:14;;;;;;;32.13;10.60;;;17.90;57.70;;;;;;5104612;28;20445;-94
2023/04/29 09:45:42;;;;;;;31.03;11.23;;;17.90;57.70;;;;;;5110607;28;20570;-94
2023/04/29 09:48:11;;;;;;;35.00;11.13;;;17.90;57.70;;;;;;5111550;27;20626;-95
2023/04/29 09:50:39;;;;;;;33.27;10.57;;;17.90;57.70;;;;;;5112631;28;20784;-93
2023/04/29 09:53:08;;;;;;;37.77;11.27;;;18.00;57.80;;;;;;5110073;28;20205;-94
2023/04/29 09:55:35;;;;;;;37.77;10.77;;;18.00;57.80;;;;;;5110268;28;20200;-92
2023/04/29 09:58:05;;;;;;;29.73;10.30;;;18.00;57.80;;;;;;5109014;27;20212;-90
2023/04/29 10:00:35;;;;;;;25.77;9.73;;;18.00;57.80;;;;;;5092406;28;20199;-94
2023/04/29 10:03:04;;;;;;;25.33;9.47;;;18.00;57.80;;;;;;5091523;28;20198;-93
2023/04/29 10:05:31;;;;;;;35.93;10.80;;;18.00;57.80;;;;;;5091905;28;20339;-94
2023/04/29 10:07:59;;;;;;;31.63;9.47;;;18.10;57.80;;;;;;5091832;28;20207;-94
2023/04/29 10:10:28;;;;;;;31.83;10.00;;;18.10;57.80;;;;;;5096189;28;20236;-95
2023/04/29 10:12:56;;;;;;;34.10;10.43;;;18.10;57.80;;;;;;5112939;28;20650;-89
2023/04/29 10:15:29;;;;;;;37.70;10.60;;;18.10;57.80;;;;;;5102749;28;20654;-92
2023/04/29 10:18:03;;;;;;;34.63;11.23;;;18.20;57.80;;;;;;5101871;28;20720;-94
2023/04/29 10:20:31;;;;;;;29.67;10.03;;;18.10;57.80;;;;;;5110836;28;20213;-93
2023/04/29 10:22:59;;;;;;;20.97;9.00;;;18.20;57.80;;;;;;5108371;28;20236;-95
2023/04/29 10:25:28;;;;;;;44.60;10.97;;;18.20;57.80;;;;;;5095139;28;20263;-92
2023/04/29 10:27:56;;;;;;;27.70;9.63;;;18.20;57.80;;;;;;5112262;28;20210;-94
2023/04/29 10:30:23;;;;;;;38.87;10.20;;;18.20;57.90;;;;;;5109023;28;20248;-94
2023/04/29 10:32:52;;;;;;;24.17;8.77;;;18.20;57.90;;;;;;5111361;28;20230;-95
2023/04/29 10:35:22;;;;;;;37.53;10.23;;;18.20;57.90;;;;;;5099888;28;20209;-94
2023/04/29 10:37:49;;;;;;;28.13;9.53;;;18.30;58.00;;;;;;5096770;27;20224;-93
2023/04/29 10:40:22;;;;;;;31.07;10.17;;;18.30;58.00;;;;;;5112388;28;20237;-95
2023/04/29 10:42:50;;;;;;;32.97;9.87;;;18.30;58.00;;;;;;5116205;27;20198;-95
2023/04/29 10:45:22;;;;;;;49.27;11.27;;;18.30;58.00;;;;;;5122434;27;20733;-95
2023/04/29 10:48:12;;;;;;;28.03;10.23;;;18.30;58.00;;;;;;5099939;28;20286;-95
2023/04/29 10:51:03;;;;;;;42.10;14.53;;;18.40;58.10;;;;;;5108612;27;20313;-95
2023/04/29 10:53:30;;;;;;;66.67;16.70;;;18.40;58.10;;;;;;5073540;27;20234;-93
2023/04/29 10:55:59;;;;;;;32.90;14.80;;;18.40;58.00;;;;;;5107013;28;20803;-91
2023/04/29 10:58:37;;;;;;;36.63;13.90;;;18.40;58.10;;;;;;5099261;28;20731;-93
2023/04/29 11:01:06;;;;;;;33.63;13.87;;;18.50;58.30;;;;;;5109908;28;20205;-93
2023/04/29 11:03:49;;;;;;;54.80;15.13;;;18.50;58.20;;;;;;5108559;28;20264;-92
2023/04/29 11:06:16;;;;;;;35.97;13.83;;;18.50;58.30;;;;;;5109619;28;20198;-92
2023/04/29 11:08:43;;;;;;;31.00;11.83;;;18.50;58.20;;;;;;5110280;28;20286;-91
2023/04/29 11:11:13;;;;;;;30.70;12.60;;;18.60;58.30;;;;;;5109001;28;20217;-91
2023/04/29 11:13:40;;;;;;;42.60;13.57;;;18.60;58.30;;;;;;5103509;27;20749;-93
2023/04/29 11:16:08;;;;;;;28.90;12.07;;;18.60;58.30;;;;;;5108841;28;20210;-92
2023/04/29 11:18:37;;;;;;;39.13;13.90;;;18.60;58.30;;;;;;5109809;28;20282;-93
2023/04/29 11:21:15;;;;;;;31.90;12.03;;;18.70;58.40;;;;;;5094264;28;20619;-93
2023/04/29 11:23:44;;;;;;;28.87;11.20;;;18.70;58.50;;;;;;5090016;28;20234;-92
2023/04/29 11:26:11;;;;;;;27.23;11.23;;;18.70;58.40;;;;;;5106450;28;20210;-94
2023/04/29 11:28:38;;;;;;;33.73;11.97;;;18.80;58.50;;;;;;5104423;28;20203;-94
2023/04/29 11:31:10;;;;;;;32.17;11.33;;;18.80;58.50;;;;;;5104145;28;20222;-95
2023/04/29 11:33:37;;;;;;;38.40;12.03;;;18.80;58.50;;;;;;5107305;28;20210;-95
2023/04/29 11:36:05;;;;;;;40.53;11.67;;;18.80;58.50;;;;;;5106217;28;20280;-94
2023/04/29 11:38:35;;;;;;;36.70;11.20;;;18.90;58.50;;;;;;5110433;28;20305;-93
2023/04/29 11:41:02;;;;;;;32.90;12.33;;;18.90;58.50;;;;;;5111337;28;20209;-93
2023/04/29 11:43:29;;;;;;;41.20;11.40;;;18.90;58.50;;;;;;5109446;28;20256;-94
2023/04/29 11:45:56;;;;;;;69.17;13.87;;;19.00;58.50;;;;;;5098278;27;20255;-93
2023/04/29 11:48:25;;;;;;;34.93;11.20;;;19.00;58.50;;;;;;5108965;28;20205;-94
2023/04/29 11:50:53;;;;;;;26.40;9.70;;;19.00;58.50;;;;;;5109268;28;20321;-95
2023/04/29 11:53:21;;;;;;;38.70;10.43;;;19.10;58.60;;;;;;5096584;28;20290;-94
2023/04/29 11:55:49;;;;;;;38.80;10.90;;;19.00;58.50;;;;;;5090711;28;20715;-93
2023/04/29 11:58:16;;;;;;;31.10;10.57;;;19.10;58.50;;;;;;5097547;28;20301;-93
2023/04/29 12:00:44;;;;;;;27.67;10.23;;;19.10;58.50;;;;;;5096848;28;20199;-94
2023/04/29 12:03:14;;;;;;;29.90;9.30;;;19.10;58.50;;;;;;5096849;28;20209;-92
2023/04/29 12:05:46;;;;;;;32.20;9.83;;;19.20;58.60;;;;;;5089887;28;20673;-91
2023/04/29 12:08:14;;;;;;;27.83;9.77;;;19.20;58.60;;;;;;5111929;28;20206;-91
2023/04/29 12:10:41;;;;;;;26.20;9.43;;;19.20;58.60;;;;;;5109447;28;20198;-91
2023/04/29 12:13:10;;;;;;;32.80;9.83;;;19.20;58.60;;;;;;5108695;27;20298;-93
2023/04/29 12:15:37;;;;;;;32.23;9.53;;;19.30;58.60;;;;;;5106388;28;20552;-93
2023/04/29 12:18:05;;;;;;;26.63;9.40;;;19.30;58.60;;;;;;5106487;27;20202;-92
2023/04/29 12:20:32;;;;;;;26.37;8.90;;;19.30;58.60;;;;;;5108873;28;20285;-92
2023/04/29 12:23:11;;;;;;;32.57;10.13;;;19.30;58.60;;;;;;5102609;28;20213;-94
2023/04/29 12:25:40;;;;;;;33.03;9.93;;;19.30;58.60;;;;;;5107937;28;21071;-91
2023/04/29 12:28:13;;;;;;;33.07;9.90;;;19.30;58.60;;;;;;5109218;28;20204;-94
2023/04/29 12:30:40;;;;;;;37.73;9.37;;;19.40;58.60;;;;;;5108866;28;20198;-92
2023/04/29 12:33:09;;;;;;;29.83;9.53;;;19.40;58.60;;;;;;5107716;28;20197;-91
2023/04/29 12:35:37;;;;;;;28.67;8.80;;;19.40;58.60;;;;;;5098787;28;20289;-94
2023/04/29 12:38:06;;;;;;;44.67;10.63;;;19.40;58.70;;;;;;5100015;28;20692;-91
2023/04/29 12:40:33;;;;;;;30.17;9.10;;;19.40;58.60;;;;;;5102890;28;20199;-91
2023/04/29 12:43:08;;;;;;;33.40;10.13;;;19.50;58.70;;;;;;5088906;28;20403;-95
2023/04/29 12:45:36;;;;;;;29.27;9.57;;;19.50;58.70;;;;;;5094826;28;20194;-92
2023/04/29 12:48:04;;;;;;;28.90;8.43;;;19.50;58.70;;;;;;5094663;28;20206;-94
2023/04/29 12:50:34;;;;;;;18.70;8.77;;;19.50;58.70;;;;;;5091408;28;20206;-93
2023/04/29 12:53:02;;;;;;;56.53;11.23;;;19.60;58.80;;;;;;5090885;28;20747;-94
2023/04/29 12:55:30;;;;;;;44.80;10.00;;;19.60;58.80;;;;;;5099783;28;20259;-93